createdAt,value
2023-12-30T00:02:22.984Z,3.33
2023-12-30T00:04:49.465Z,1.40
2023-12-30T00:07:15.994Z,7.45
2023-12-30T00:09:42.414Z,5.60
2023-12-30T00:12:11.763Z,3.95
2023-12-30T00:14:38.189Z,4.53
2023-12-30T00:17:04.737Z,5.95
2023-12-30T00:19:31.327Z,3.40
2023-12-30T00:21:58.021Z,5.75
2023-12-30T00:24:24.428Z,4.53
2023-12-30T00:26:51.359Z,2.97
2023-12-30T00:29:18.036Z,6.60
2023-12-30T00:31:44.442Z,4.35
2023-12-30T00:34:11.139Z,6.25
2023-12-30T00:36:42.641Z,3.05
2023-12-30T00:39:09.064Z,4.15
2023-12-30T00:41:35.887Z,4.28
2023-12-30T00:44:02.400Z,4.28
2023-12-30T00:46:28.935Z,4.63
2023-12-30T00:48:57.607Z,5.32
2023-12-30T00:51:25.023Z,3.10
2023-12-30T00:53:51.587Z,4.38
2023-12-30T00:56:18.237Z,2.08
2023-12-30T00:58:44.746Z,2.83
2023-12-30T01:01:13.832Z,4.40
2023-12-30T01:03:40.806Z,5.13
2023-12-30T01:06:07.344Z,7.05
2023-12-30T01:08:33.723Z,1.60
2023-12-30T01:11:00.201Z,2.55
2023-12-30T01:13:26.674Z,3.88
2023-12-30T01:15:53.161Z,1.92
2023-12-30T01:18:19.743Z,7.38
2023-12-30T01:20:46.202Z,4.93
2023-12-30T01:23:12.610Z,3.42
2023-12-30T01:25:38.955Z,2.03
2023-12-30T01:28:06.666Z,6.90
2023-12-30T01:30:33.242Z,5.97
2023-12-30T01:32:59.853Z,2.80
2023-12-30T01:35:26.433Z,3.97
2023-12-30T01:37:52.933Z,4.22
2023-12-30T01:40:19.474Z,6.78
2023-12-30T01:42:45.987Z,4.07
2023-12-30T01:45:12.428Z,3.05
2023-12-30T01:47:39.722Z,3.08
2023-12-30T01:50:09.794Z,2.03
2023-12-30T01:52:37.352Z,1.65
2023-12-30T01:55:05.816Z,2.08
2023-12-30T01:57:32.604Z,5.28
2023-12-30T02:00:02.242Z,3.38
2023-12-30T02:02:29.520Z,4.22
2023-12-30T02:04:56.643Z,3.00
2023-12-30T02:07:23.232Z,2.92
2023-12-30T02:09:50.062Z,2.60
2023-12-30T02:12:16.390Z,3.58
2023-12-30T02:14:42.833Z,2.58
2023-12-30T02:17:09.187Z,3.22
2023-12-30T02:19:35.616Z,5.30
2023-12-30T02:22:02.149Z,3.03
2023-12-30T02:24:28.547Z,5.00
2023-12-30T02:26:56.766Z,8.07
2023-12-30T02:29:23.308Z,1.77
2023-12-30T02:31:49.943Z,1.90
2023-12-30T02:34:18.867Z,4.47
2023-12-30T02:36:46.574Z,3.28
2023-12-30T02:39:13.196Z,4.38
2023-12-30T02:41:40.076Z,5.00
2023-12-30T02:44:07.038Z,3.42
2023-12-30T02:46:33.618Z,2.78
2023-12-30T02:49:00.202Z,7.05
2023-12-30T02:51:26.680Z,2.75
2023-12-30T02:53:54.238Z,4.38
2023-12-30T02:56:21.931Z,4.43
2023-12-30T02:58:51.127Z,4.25
2023-12-30T03:01:17.578Z,4.30
2023-12-30T03:03:44.111Z,5.47
2023-12-30T03:06:14.327Z,2.45
2023-12-30T03:08:40.897Z,4.80
2023-12-30T03:11:09.488Z,3.47
2023-12-30T03:13:36.296Z,2.42
2023-12-30T03:16:06.225Z,5.72
2023-12-30T03:18:32.772Z,3.80
2023-12-30T03:20:59.827Z,5.25
2023-12-30T03:23:26.502Z,2.25
2023-12-30T03:25:53.962Z,4.75
2023-12-30T03:28:20.342Z,4.47
2023-12-30T03:30:46.924Z,3.70
2023-12-30T03:33:13.639Z,3.65
2023-12-30T03:35:40.349Z,3.97
2023-12-30T03:38:06.799Z,3.53
2023-12-30T03:40:33.248Z,1.30
2023-12-30T03:42:59.699Z,4.88
2023-12-30T03:45:26.226Z,6.00
2023-12-30T03:47:52.863Z,6.13
2023-12-30T03:50:20.230Z,3.78
2023-12-30T03:52:46.784Z,7.90
2023-12-30T03:55:13.763Z,2.28
2023-12-30T03:57:40.161Z,2.78
2023-12-30T04:00:07.200Z,4.70
2023-12-30T04:02:33.769Z,4.10
2023-12-30T04:05:00.292Z,2.72
2023-12-30T04:07:26.744Z,1.05
2023-12-30T04:09:53.250Z,2.78
2023-12-30T04:12:19.704Z,2.22
2023-12-30T04:14:46.091Z,2.10
2023-12-30T04:17:12.588Z,3.70
2023-12-30T04:19:39.774Z,8.40
2023-12-30T04:22:06.287Z,12.50
2023-12-30T04:24:32.804Z,3.03
2023-12-30T04:26:59.158Z,4.00
2023-12-30T04:29:25.619Z,2.38
2023-12-30T04:31:52.160Z,2.78
2023-12-30T04:34:18.936Z,3.55
2023-12-30T04:36:45.407Z,3.72
2023-12-30T04:39:11.817Z,5.75
2023-12-30T04:41:39.263Z,4.97
2023-12-30T04:44:05.720Z,6.38
2023-12-30T04:46:32.269Z,8.43
2023-12-30T04:48:59.178Z,3.35
2023-12-30T04:51:25.719Z,7.07
2023-12-30T04:53:52.104Z,5.25
2023-12-30T04:56:18.646Z,4.38
2023-12-30T04:58:45.180Z,2.97
2023-12-30T05:01:12.010Z,7.97
2023-12-30T05:03:41.977Z,3.83
2023-12-30T05:06:08.497Z,1.92
2023-12-30T05:08:34.938Z,3.53
2023-12-30T05:11:01.373Z,3.80
2023-12-30T05:13:29.115Z,3.58
2023-12-30T05:15:55.659Z,4.32
2023-12-30T05:18:22.244Z,5.35
2023-12-30T05:20:48.760Z,4.75
2023-12-30T05:23:15.497Z,2.15
2023-12-30T05:25:42.021Z,7.10
2023-12-30T05:28:08.536Z,4.32
2023-12-30T05:30:35.059Z,5.95
2023-12-30T05:33:01.703Z,4.15
2023-12-30T05:35:28.418Z,4.18
2023-12-30T05:37:54.871Z,5.60
2023-12-30T05:40:22.770Z,9.10
2023-12-30T05:42:49.293Z,2.90
2023-12-30T05:45:15.656Z,5.28
2023-12-30T05:47:42.072Z,5.35
2023-12-30T05:50:08.858Z,4.28
2023-12-30T05:52:35.516Z,3.97
2023-12-30T05:55:02.068Z,3.75
2023-12-30T05:57:28.543Z,10.70
2023-12-30T05:59:54.955Z,8.00
2023-12-30T06:02:22.501Z,5.63
2023-12-30T06:04:49.055Z,1.23
2023-12-30T06:07:15.910Z,2.97
2023-12-30T06:09:42.416Z,6.00
2023-12-30T06:12:09.391Z,9.70
2023-12-30T06:14:36.039Z,2.35
2023-12-30T06:17:02.733Z,4.38
2023-12-30T06:19:29.407Z,6.13
2023-12-30T06:21:56.215Z,4.45
2023-12-30T06:24:25.578Z,1.27
2023-12-30T06:26:52.134Z,7.97
2023-12-30T06:29:18.720Z,6.70
2023-12-30T06:31:45.187Z,6.38
2023-12-30T06:34:12.546Z,8.25
2023-12-30T06:36:41.396Z,6.78
2023-12-30T06:39:09.056Z,2.47
2023-12-30T06:41:35.603Z,2.15
2023-12-30T06:44:02.056Z,2.25
2023-12-30T06:46:28.554Z,4.85
2023-12-30T06:48:55.098Z,3.83
2023-12-30T06:51:21.510Z,2.80
2023-12-30T06:53:47.927Z,2.25
2023-12-30T06:56:14.365Z,3.45
2023-12-30T06:58:40.981Z,2.45
2023-12-30T07:01:07.390Z,7.82
2023-12-30T07:03:34.009Z,5.63
2023-12-30T07:06:00.493Z,3.70
2023-12-30T07:08:26.834Z,5.45
2023-12-30T07:10:53.254Z,6.07
2023-12-30T07:13:19.666Z,4.10
2023-12-30T07:15:46.067Z,2.88
2023-12-30T07:18:12.827Z,6.28
2023-12-30T07:20:40.104Z,9.18
2023-12-30T07:23:06.508Z,4.78
2023-12-30T07:25:33.069Z,4.40
2023-12-30T07:27:59.582Z,4.93
2023-12-30T07:30:26.044Z,7.22
2023-12-30T07:32:52.534Z,2.42
2023-12-30T07:35:19.008Z,4.35
2023-12-30T07:37:45.488Z,4.63
2023-12-30T07:40:12.552Z,4.13
2023-12-30T07:42:39.179Z,2.53
2023-12-30T07:45:06.440Z,5.32
2023-12-30T07:47:32.994Z,6.40
2023-12-30T07:49:59.597Z,7.63
2023-12-30T07:52:26.753Z,3.58
2023-12-30T07:54:53.594Z,10.18
2023-12-30T07:57:20.250Z,8.88
2023-12-30T07:59:46.712Z,7.40
2023-12-30T08:02:13.308Z,7.18
2023-12-30T08:04:43.240Z,8.18
2023-12-30T08:07:09.669Z,2.97
2023-12-30T08:09:36.223Z,5.30
2023-12-30T08:12:04.374Z,4.53
2023-12-30T08:14:31.308Z,3.22
2023-12-30T08:16:58.432Z,12.18
2023-12-30T08:19:24.869Z,8.40
2023-12-30T08:21:51.463Z,3.70
2023-12-30T08:24:21.151Z,9.05
2023-12-30T08:26:47.937Z,9.68
2023-12-30T08:29:16.484Z,8.82
2023-12-30T08:31:43.021Z,8.48
2023-12-30T08:34:12.038Z,9.18
2023-12-30T08:36:38.503Z,9.02
2023-12-30T08:39:06.236Z,9.63
2023-12-30T08:41:33.680Z,9.50
2023-12-30T08:44:02.224Z,11.13
2023-12-30T08:46:28.798Z,5.93
2023-12-30T08:48:55.582Z,8.23
2023-12-30T08:51:24.417Z,13.00
2023-12-30T08:53:52.916Z,6.45
2023-12-30T08:56:19.429Z,7.35
2023-12-30T08:58:46.331Z,7.30
2023-12-30T09:01:14.382Z,8.00
2023-12-30T09:03:40.904Z,6.90
2023-12-30T09:06:07.481Z,7.78
2023-12-30T09:08:34.013Z,9.13
2023-12-30T09:11:00.403Z,8.23
2023-12-30T09:13:29.604Z,8.60
2023-12-30T09:15:56.121Z,8.20
2023-12-30T09:18:22.728Z,7.00
2023-12-30T09:20:50.216Z,4.22
2023-12-30T09:23:16.881Z,5.60
2023-12-30T09:25:43.566Z,8.32
2023-12-30T09:28:10.189Z,9.38
2023-12-30T09:30:36.767Z,6.20
2023-12-30T09:33:03.792Z,8.73
2023-12-30T09:35:30.847Z,7.72
2023-12-30T09:37:57.246Z,4.47
2023-12-30T09:40:23.817Z,6.60
2023-12-30T09:42:51.727Z,7.07
2023-12-30T09:45:18.126Z,8.80
2023-12-30T09:47:45.990Z,2.97
2023-12-30T09:50:12.471Z,8.20
2023-12-30T09:52:39.029Z,8.00
2023-12-30T09:55:08.313Z,7.53
2023-12-30T09:57:35.296Z,4.82
2023-12-30T10:00:02.804Z,8.98
2023-12-30T10:02:30.676Z,13.07
2023-12-30T10:04:58.646Z,6.07
2023-12-30T10:07:25.753Z,12.95
2023-12-30T10:09:52.245Z,8.43
2023-12-30T10:12:21.575Z,11.68
2023-12-30T10:14:48.406Z,8.07
2023-12-30T10:17:15.325Z,9.25
2023-12-30T10:19:41.779Z,9.10
2023-12-30T10:22:08.303Z,5.43
2023-12-30T10:24:34.868Z,10.48
2023-12-30T10:27:01.290Z,5.80
2023-12-30T10:29:28.312Z,11.88
2023-12-30T10:32:04.100Z,9.93
2023-12-30T10:34:31.314Z,7.72
2023-12-30T10:36:59.098Z,5.57
2023-12-30T10:39:26.535Z,10.73
2023-12-30T10:41:52.945Z,7.70
2023-12-30T10:44:19.367Z,5.68
2023-12-30T10:46:51.243Z,7.78
2023-12-30T10:49:22.261Z,10.38
2023-12-30T10:51:53.524Z,7.90
2023-12-30T10:54:38.201Z,11.95
2023-12-30T10:57:09.359Z,5.93
2023-12-30T10:59:38.186Z,5.72
2023-12-30T11:02:04.834Z,7.45
2023-12-30T11:04:31.629Z,11.68
2023-12-30T11:06:58.501Z,11.18
2023-12-30T11:09:25.876Z,6.53
2023-12-30T11:11:55.597Z,9.15
2023-12-30T11:14:22.641Z,5.78
2023-12-30T11:16:49.899Z,18.88
2023-12-30T11:19:32.975Z,12.10
2023-12-30T11:22:01.503Z,8.32
2023-12-30T11:24:28.641Z,4.22
2023-12-30T11:26:56.456Z,11.07
2023-12-30T11:29:29.959Z,7.35
2023-12-30T11:31:58.633Z,12.02
2023-12-30T11:34:26.164Z,7.80
2023-12-30T11:36:54.334Z,6.65
2023-12-30T11:39:29.775Z,10.23
2023-12-30T11:41:58.864Z,10.95
2023-12-30T11:44:25.955Z,11.10
2023-12-30T11:46:52.560Z,13.85
2023-12-30T11:49:25.855Z,9.25
2023-12-30T11:52:01.420Z,13.82
2023-12-30T11:54:27.867Z,10.35
2023-12-30T11:56:54.344Z,9.38
2023-12-30T11:59:20.821Z,11.75
2023-12-30T12:01:48.305Z,16.95
2023-12-30T12:04:16.666Z,9.73
2023-12-30T12:06:43.110Z,12.30
2023-12-30T12:09:09.863Z,8.63
2023-12-30T12:11:36.297Z,16.98
2023-12-30T12:14:03.095Z,15.07
2023-12-30T12:16:31.413Z,11.93
2023-12-30T12:18:58.030Z,15.45
2023-12-30T12:21:26.364Z,18.17
2023-12-30T12:23:54.174Z,16.48
2023-12-30T12:26:25.146Z,15.40
2023-12-30T12:28:53.575Z,18.00
2023-12-30T12:31:20.403Z,14.18
2023-12-30T12:33:46.892Z,12.63
2023-12-30T12:36:13.406Z,20.45
2023-12-30T12:38:39.843Z,15.90
2023-12-30T12:41:06.340Z,17.83
2023-12-30T12:43:32.865Z,12.88
2023-12-30T12:46:00.652Z,15.25
2023-12-30T12:48:27.567Z,12.77
2023-12-30T12:50:54.169Z,13.80
2023-12-30T12:53:21.292Z,26.15
2023-12-30T12:55:47.914Z,13.25
2023-12-30T12:58:14.399Z,15.20
2023-12-30T13:00:40.897Z,13.38
2023-12-30T13:03:07.894Z,18.85
2023-12-30T13:05:34.502Z,13.05
2023-12-30T13:08:01.154Z,17.40
2023-12-30T13:10:27.604Z,9.85
2023-12-30T13:12:53.997Z,14.07
2023-12-30T13:15:20.441Z,15.35
2023-12-30T13:17:47.349Z,17.60
2023-12-30T13:20:13.942Z,12.00
2023-12-30T13:22:40.416Z,12.15
2023-12-30T13:25:07.226Z,10.88
2023-12-30T13:27:36.054Z,15.82
2023-12-30T13:30:02.683Z,12.73
2023-12-30T13:32:30.706Z,11.25
2023-12-30T13:34:57.222Z,8.48
2023-12-30T13:37:24.088Z,9.95
2023-12-30T13:39:53.896Z,10.10
2023-12-30T13:42:22.759Z,9.80
2023-12-30T13:44:49.144Z,11.77
2023-12-30T13:47:15.760Z,7.65
2023-12-30T13:49:42.233Z,8.23
2023-12-30T13:52:12.516Z,8.75
2023-12-30T13:54:39.945Z,10.80
2023-12-30T13:57:06.357Z,8.10
2023-12-30T13:59:32.766Z,7.75
2023-12-30T14:01:59.512Z,5.18
2023-12-30T14:04:26.160Z,6.38
2023-12-30T14:06:54.870Z,8.27
2023-12-30T14:09:21.250Z,6.50
2023-12-30T14:11:47.615Z,12.10
2023-12-30T14:14:14.120Z,10.23
2023-12-30T14:16:40.800Z,9.55
2023-12-30T14:19:07.292Z,8.65
2023-12-30T14:21:34.606Z,9.27
2023-12-30T14:24:04.690Z,11.38
2023-12-30T14:26:31.760Z,10.35
2023-12-30T14:28:58.341Z,9.75
2023-12-30T14:31:24.807Z,9.15
2023-12-30T14:33:51.296Z,8.30
2023-12-30T14:36:17.862Z,9.77
2023-12-30T14:38:45.629Z,9.55
2023-12-30T14:41:12.467Z,10.93
2023-12-30T14:43:39.033Z,11.90
2023-12-30T14:46:05.661Z,8.32
2023-12-30T14:48:32.130Z,5.10
2023-12-30T14:50:58.518Z,7.07
2023-12-30T14:53:26.350Z,10.57
2023-12-30T14:55:52.962Z,8.35
2023-12-30T14:58:20.519Z,7.13
2023-12-30T15:00:47.623Z,13.10
2023-12-30T15:03:14.212Z,12.73
2023-12-30T15:05:40.731Z,11.35
2023-12-30T15:08:07.439Z,11.05
2023-12-30T15:10:34.028Z,8.20
2023-12-30T15:13:00.955Z,7.13
2023-12-30T15:15:27.668Z,8.30
2023-12-30T15:17:54.265Z,11.88
2023-12-30T15:20:20.999Z,12.85
2023-12-30T15:22:47.607Z,8.02
2023-12-30T15:25:14.606Z,6.75
2023-12-30T15:27:41.012Z,5.70
2023-12-30T15:30:07.901Z,14.57
2023-12-30T15:32:34.574Z,10.63
2023-12-30T15:35:01.276Z,9.23
2023-12-30T15:37:28.037Z,13.52
2023-12-30T15:39:54.527Z,13.88
2023-12-30T15:42:21.475Z,6.32
2023-12-30T15:44:48.192Z,5.18
2023-12-30T15:47:14.659Z,5.90
2023-12-30T15:49:41.734Z,11.35
2023-12-30T15:52:09.742Z,7.18
2023-12-30T15:54:36.943Z,7.53
2023-12-30T15:57:04.081Z,6.93
2023-12-30T15:59:30.671Z,8.38
2023-12-30T16:01:57.212Z,4.65
2023-12-30T16:04:23.646Z,7.63
2023-12-30T16:06:50.122Z,7.50
2023-12-30T16:09:16.577Z,6.18
2023-12-30T16:11:42.968Z,8.23
2023-12-30T16:14:09.401Z,6.20
2023-12-30T16:16:36.830Z,9.93
2023-12-30T16:19:03.730Z,6.00
2023-12-30T16:21:31.280Z,8.45
2023-12-30T16:24:00.374Z,5.90
2023-12-30T16:26:27.177Z,8.20
2023-12-30T16:28:53.648Z,6.85
2023-12-30T16:31:20.119Z,8.90
2023-12-30T16:33:50.805Z,6.82
2023-12-30T16:36:17.492Z,5.40
2023-12-30T16:38:44.128Z,6.53
2023-12-30T16:41:10.657Z,8.18
2023-12-30T16:43:37.262Z,5.00
2023-12-30T16:46:04.443Z,8.13
2023-12-30T16:48:30.968Z,9.15
2023-12-30T16:50:57.420Z,11.38
2023-12-30T16:53:24.143Z,9.35
2023-12-30T16:55:50.645Z,6.82
2023-12-30T16:58:17.967Z,3.97
2023-12-30T17:00:44.952Z,11.10
2023-12-30T17:03:11.496Z,4.68
2023-12-30T17:05:38.098Z,2.90
2023-12-30T17:08:04.985Z,4.90
2023-12-30T17:10:31.441Z,4.55
2023-12-30T17:12:58.058Z,7.05
2023-12-30T17:15:24.679Z,8.45
2023-12-30T17:17:51.255Z,5.10
2023-12-30T17:20:17.667Z,5.32
2023-12-30T17:22:44.088Z,3.75
2023-12-30T17:25:10.607Z,3.05
2023-12-30T17:27:37.067Z,6.47
2023-12-30T17:30:04.134Z,7.45
2023-12-30T17:32:30.663Z,9.68
2023-12-30T17:34:58.191Z,4.72
2023-12-30T17:37:24.673Z,8.13
2023-12-30T17:39:51.163Z,4.50
2023-12-30T17:42:18.757Z,4.97
2023-12-30T17:44:45.164Z,2.97
2023-12-30T17:47:11.573Z,3.30
2023-12-30T17:49:37.993Z,8.77
2023-12-30T17:52:04.717Z,3.85
2023-12-30T17:54:31.188Z,6.97
2023-12-30T17:56:57.599Z,4.03
2023-12-30T17:59:25.566Z,4.88
2023-12-30T18:01:52.208Z,5.50
2023-12-30T18:04:18.701Z,3.85
2023-12-30T18:06:45.357Z,4.80
2023-12-30T18:09:12.153Z,3.97
2023-12-30T18:11:39.614Z,7.35
2023-12-30T18:14:07.054Z,7.35
2023-12-30T18:16:33.439Z,8.23
2023-12-30T18:18:59.948Z,5.63
2023-12-30T18:21:26.466Z,7.10
2023-12-30T18:23:52.950Z,8.25
2023-12-30T18:26:19.639Z,6.10
2023-12-30T18:28:46.445Z,4.50
2023-12-30T18:31:14.035Z,9.40
2023-12-30T18:33:43.270Z,6.72
2023-12-30T18:36:11.063Z,7.35
2023-12-30T18:38:37.540Z,11.52
2023-12-30T18:41:04.126Z,4.25
2023-12-30T18:43:33.251Z,6.18
2023-12-30T18:46:02.476Z,6.78
2023-12-30T18:48:29.044Z,7.72
2023-12-30T18:50:55.427Z,4.53
2023-12-30T18:53:21.904Z,3.90
2023-12-30T18:55:48.369Z,5.03
2023-12-30T18:58:14.836Z,6.88
2023-12-30T19:00:41.266Z,4.43
2023-12-30T19:03:08.140Z,5.72
2023-12-30T19:05:39.472Z,4.80
2023-12-30T19:08:06.329Z,5.22
2023-12-30T19:10:32.705Z,7.13
2023-12-30T19:12:59.171Z,5.60
2023-12-30T19:15:25.654Z,5.25
2023-12-30T19:17:52.148Z,4.63
2023-12-30T19:20:18.618Z,6.85
2023-12-30T19:22:45.101Z,6.43
2023-12-30T19:25:11.703Z,5.00
2023-12-30T19:27:39.503Z,4.32
2023-12-30T19:30:07.836Z,6.88
2023-12-30T19:32:34.396Z,5.22
2023-12-30T19:35:01.289Z,7.63
2023-12-30T19:37:28.174Z,7.50
2023-12-30T19:39:54.725Z,7.70
2023-12-30T19:42:21.144Z,7.90
2023-12-30T19:44:47.528Z,4.93
2023-12-30T19:47:13.887Z,5.00
2023-12-30T19:49:40.301Z,5.45
2023-12-30T19:52:06.791Z,4.00
2023-12-30T19:54:33.289Z,4.28
2023-12-30T19:56:59.680Z,3.80
2023-12-30T19:59:26.119Z,5.30
2023-12-30T20:01:52.766Z,4.43
2023-12-30T20:04:19.214Z,3.13
2023-12-30T20:06:46.655Z,2.50
2023-12-30T20:09:13.586Z,3.85
2023-12-30T20:11:40.091Z,3.17
2023-12-30T20:14:06.484Z,4.60
2023-12-30T20:16:32.894Z,4.78
2023-12-30T20:18:59.373Z,4.53
2023-12-30T20:21:25.899Z,5.40
2023-12-30T20:23:52.436Z,1.95
2023-12-30T20:26:18.916Z,4.53
2023-12-30T20:28:45.624Z,3.17
2023-12-30T20:31:12.156Z,4.45
2023-12-30T20:33:38.578Z,5.93
2023-12-30T20:36:05.286Z,3.70
2023-12-30T20:38:31.678Z,2.85
2023-12-30T20:40:58.071Z,5.97
2023-12-30T20:43:24.535Z,2.78
2023-12-30T20:45:50.980Z,2.75
2023-12-30T20:48:17.566Z,3.85
2023-12-30T20:50:44.113Z,2.38
2023-12-30T20:53:10.486Z,4.70
2023-12-30T20:55:36.915Z,5.25
2023-12-30T20:58:03.524Z,3.55
2023-12-30T21:00:29.991Z,6.32
2023-12-30T21:02:56.353Z,4.68
2023-12-30T21:05:23.044Z,4.25
2023-12-30T21:07:49.474Z,6.00
2023-12-30T21:10:16.224Z,5.55
2023-12-30T21:12:42.756Z,4.95
2023-12-30T21:15:09.440Z,5.25
2023-12-30T21:17:36.231Z,6.30
2023-12-30T21:20:02.578Z,4.63
2023-12-30T21:22:30.004Z,4.32
2023-12-30T21:24:56.560Z,3.70
2023-12-30T21:27:23.048Z,4.35
2023-12-30T21:29:49.456Z,4.97
2023-12-30T21:32:15.946Z,4.45
2023-12-30T21:34:42.351Z,3.58
2023-12-30T21:37:08.790Z,5.57
2023-12-30T21:39:35.488Z,4.13
2023-12-30T21:42:02.080Z,3.75
2023-12-30T21:44:28.546Z,4.13
2023-12-30T21:46:54.984Z,4.80
2023-12-30T21:49:21.607Z,3.80
2023-12-30T21:51:48.093Z,5.03
2023-12-30T21:54:14.943Z,4.80
2023-12-30T21:56:43.258Z,5.57
2023-12-30T21:59:10.258Z,5.95
2023-12-30T22:01:36.828Z,4.45
2023-12-30T22:04:03.320Z,7.15
2023-12-30T22:06:29.770Z,6.35
2023-12-30T22:08:56.164Z,4.40
2023-12-30T22:11:22.543Z,4.70
2023-12-30T22:13:49.106Z,3.97
2023-12-30T22:16:15.684Z,6.65
2023-12-30T22:18:42.229Z,7.45
2023-12-30T22:21:08.698Z,5.32
2023-12-30T22:23:36.547Z,4.90
2023-12-30T22:26:03.052Z,4.47
2023-12-30T22:28:30.857Z,2.92
2023-12-30T22:30:58.011Z,4.88
2023-12-30T22:33:24.532Z,4.65
2023-12-30T22:35:50.940Z,2.83
2023-12-30T22:38:17.387Z,3.25
2023-12-30T22:40:43.886Z,3.30
2023-12-30T22:43:10.332Z,2.65
2023-12-30T22:45:36.666Z,3.13
2023-12-30T22:48:04.395Z,3.42
2023-12-30T22:50:30.762Z,2.47
2023-12-30T22:52:57.411Z,2.75
2023-12-30T22:55:23.976Z,4.32
2023-12-30T22:57:50.424Z,3.67
2023-12-30T23:00:17.190Z,4.78
2023-12-30T23:02:43.667Z,4.70
2023-12-30T23:05:10.215Z,3.55
2023-12-30T23:07:36.802Z,3.53
2023-12-30T23:10:03.418Z,3.97
2023-12-30T23:12:29.761Z,6.38
2023-12-30T23:14:56.171Z,2.78
2023-12-30T23:17:22.635Z,3.63
2023-12-30T23:19:49.212Z,3.28
2023-12-30T23:22:15.747Z,4.10
2023-12-30T23:24:42.189Z,3.35
2023-12-30T23:27:08.689Z,3.45
2023-12-30T23:29:35.367Z,4.15
2023-12-30T23:32:01.743Z,3.65
2023-12-30T23:34:38.529Z,2.80
2023-12-30T23:37:09.877Z,3.25
2023-12-30T23:39:36.234Z,4.35
2023-12-30T23:42:02.709Z,3.95
2023-12-30T23:44:29.183Z,4.20
2023-12-30T23:46:55.580Z,3.50
2023-12-30T23:49:21.990Z,4.05
2023-12-30T23:51:48.545Z,4.07
2023-12-30T23:54:15.008Z,4.38
2023-12-30T23:56:43.717Z,4.18
2023-12-30T23:59:10.397Z,2.47
